Time;durP1;ratioP1;P1;durP2;ratioP2;P2;SDS_P1;SDS_P2;PMS_P1;PMS_P2;Temp;Humidity;BMP_temperature;BMP_pressure;BME280_temperature;BME280_humidity;BME280_pressure;Samples;Min_cycle;Max_cycle;Signal;HPM_P1;HPM_P2
2021/08/17 00:01:02;;;;;;;13.85;6.80;;;;;;;11.23;95.21;99571.53;5046027;28;20376;-69
2021/08/17 00:03:28;;;;;;;18.63;8.13;;;;;;;11.20;95.35;99582.94;5057006;28;20119;-69
2021/08/17 00:05:53;;;;;;;16.40;8.00;;;;;;;11.31;95.55;99591.69;5065813;28;20039;-69
2021/08/17 00:08:18;;;;;;;16.35;7.82;;;;;;;11.27;95.62;99594.34;5049469;28;20030;-69
2021/08/17 00:10:44;;;;;;;19.23;7.55;;;;;;;11.14;95.08;99583.03;5066438;28;20215;-69
2021/08/17 00:13:09;;;;;;;17.42;7.57;;;;;;;11.14;95.34;99598.84;5066816;28;20294;-69
2021/08/17 00:15:35;;;;;;;15.38;7.72;;;;;;;11.23;95.45;99598.75;5058009;28;20096;-69
2021/08/17 00:18:01;;;;;;;13.18;6.65;;;;;;;10.99;94.49;99614.72;5047304;28;20022;-69
2021/08/17 00:20:27;;;;;;;21.20;6.78;;;;;;;10.88;94.92;99627.06;5047263;28;20013;-69
2021/08/17 00:22:53;;;;;;;13.20;6.10;;;;;;;10.85;95.36;99621.78;5064991;28;20399;-69
2021/08/17 00:25:19;;;;;;;14.60;7.13;;;;;;;10.79;95.45;99648.19;5061325;28;20036;-69
2021/08/17 00:27:44;;;;;;;21.38;7.68;;;;;;;10.82;95.87;99627.06;5054787;28;20020;-69
2021/08/17 00:30:10;;;;;;;18.90;6.85;;;;;;;10.87;95.74;99622.69;5065112;28;20013;-69
2021/08/17 00:32:36;;;;;;;15.60;7.47;;;;;;;10.75;95.34;99625.34;5066394;28;20017;-69
2021/08/17 00:35:03;;;;;;;17.05;7.45;;;;;;;10.67;95.59;99616.63;5049379;28;20383;-69
2021/08/17 00:37:29;;;;;;;31.50;8.43;;;;;;;10.54;95.31;99636.84;5046949;28;20017;-69
2021/08/17 00:39:55;;;;;;;17.30;7.40;;;;;;;10.76;95.48;99653.47;5052349;28;20024;-69
2021/08/17 00:42:20;;;;;;;18.40;6.57;;;;;;;10.55;94.55;99648.25;5066010;28;20024;-69
2021/08/17 00:44:46;;;;;;;20.90;7.10;;;;;;;10.53;94.66;99655.28;5066782;28;20308;-69
2021/08/17 00:47:15;;;;;;;18.35;7.45;;;;;;;10.62;95.70;99671.06;5066721;28;20017;-69
2021/08/17 00:49:42;;;;;;;14.70;6.60;;;;;;;10.59;95.34;99673.69;5066686;28;20396;-69
2021/08/17 00:52:09;;;;;;;18.42;6.28;;;;;;;10.50;95.02;99677.22;5066647;28;20020;-69
2021/08/17 00:54:44;;;;;;;21.65;6.20;;;;;;;10.47;95.05;99692.13;5055968;28;20017;-69
2021/08/17 00:57:11;;;;;;;28.08;7.43;;;;;;;10.52;95.34;99690.38;5046650;28;20044;-69
2021/08/17 00:59:37;;;;;;;22.05;7.03;;;;;;;10.49;95.45;99696.53;5047672;28;20208;-69
2021/08/17 01:02:03;;;;;;;16.52;6.97;;;;;;;10.56;94.75;99694.75;5046252;28;20120;-69
2021/08/17 01:04:28;;;;;;;20.85;7.22;;;;;;;10.53;94.54;99684.22;5053068;28;20044;-69
2021/08/17 01:06:54;;;;;;;16.35;6.80;;;;;;;10.50;94.84;99681.59;5064395;28;20017;-69
2021/08/17 01:09:19;;;;;;;15.25;6.72;;;;;;;10.48;95.39;99705.28;5063760;28;20048;-69
2021/08/17 01:11:47;;;;;;;16.17;6.63;;;;;;;10.39;95.11;99693.94;5057946;28;20024;-69
2021/08/17 01:14:20;;;;;;;19.67;6.25;;;;;;;10.28;95.40;99690.41;5064452;28;20020;-69
2021/08/17 01:16:47;;;;;;;22.88;6.35;;;;;;;10.35;94.50;99705.34;5063937;28;20017;-69
2021/08/17 01:19:13;;;;;;;10.10;4.55;;;;;;;10.34;93.75;99653.56;5065606;28;20040;-69
2021/08/17 01:21:39;;;;;;;28.70;5.30;;;;;;;10.19;94.02;99664.16;5064708;28;20017;-69
2021/08/17 01:24:05;;;;;;;9.15;4.75;;;;;;;10.21;94.52;99684.31;5044887;28;20024;-69
2021/08/17 01:26:31;;;;;;;10.63;5.15;;;;;;;10.25;94.52;99685.19;5046044;28;20028;-69
2021/08/17 01:28:57;;;;;;;15.05;5.57;;;;;;;10.25;94.57;99693.94;5055805;28;20024;-69
2021/08/17 01:31:24;;;;;;;44.35;4.50;;;;;;;10.22;93.94;99696.56;5065366;28;20094;-69
2021/08/17 01:33:50;;;;;;;20.20;4.88;;;;;;;10.19;94.53;99716.78;5065148;28;20025;-69
2021/08/17 01:36:15;;;;;;;58.55;4.30;;;;;;;10.14;95.33;99718.50;5080341;28;20193;-69
2021/08/17 01:38:48;;;;;;;16.02;4.88;;;;;;;10.24;95.41;99725.50;5065265;28;20213;-69
2021/08/17 01:41:14;;;;;;;69.35;4.90;;;;;;;10.17;95.35;99734.28;5056623;28;20021;-69
2021/08/17 01:43:39;;;;;;;76.10;6.15;;;;;;;10.16;95.66;99758.88;5064897;28;20316;-69
2021/08/17 01:46:05;;;;;;;25.70;3.50;;;;;;;10.12;95.31;99751.81;5057974;28;20029;-69
2021/08/17 01:48:31;;;;;;;84.53;4.47;;;;;;;10.11;95.10;99723.78;5063568;28;20339;-69
2021/08/17 01:50:58;;;;;;;67.20;6.40;;;;;;;10.05;95.19;99718.47;5065000;28;20021;-69
2021/08/17 01:53:28;;;;;;;28.58;4.00;;;;;;;10.08;95.44;99715.88;5056830;28;20029;-69
2021/08/17 01:55:55;;;;;;;50.05;4.55;;;;;;;10.11;95.00;99776.38;5045526;28;20120;-69
2021/08/17 01:58:24;;;;;;;38.72;5.38;;;;;;;10.03;94.71;99709.72;5044303;28;20257;-69
2021/08/17 02:00:50;;;;;;;32.10;4.82;;;;;;;10.06;94.54;99730.78;5063572;28;20084;-69
2021/08/17 02:03:15;;;;;;;24.73;4.40;;;;;;;9.97;93.94;99720.25;5046541;28;20053;-69
2021/08/17 02:05:41;;;;;;;18.75;3.90;;;;;;;9.86;93.60;99737.75;5056363;28;20347;-69
2021/08/17 02:08:06;;;;;;;28.88;3.90;;;;;;;9.74;93.89;99737.72;5049436;28;20043;-69
2021/08/17 02:10:32;;;;;;;55.83;5.18;;;;;;;9.51;94.45;99760.47;5046670;28;20270;-69
2021/08/17 02:12:57;;;;;;;19.52;3.83;;;;;;;9.57;94.90;99760.50;5064570;28;20029;-69
2021/08/17 02:15:23;;;;;;;11.50;3.67;;;;;;;9.51;95.55;99770.97;5065052;28;20025;-69
2021/08/17 02:17:49;;;;;;;10.80;4.57;;;;;;;9.60;95.65;99766.66;5065002;28;20035;-69
2021/08/17 02:20:14;;;;;;;14.75;4.53;;;;;;;9.53;95.20;99771.88;5064987;28;20043;-69
2021/08/17 02:22:40;;;;;;;14.82;5.38;;;;;;;9.49;94.75;99788.50;5063054;28;20017;-69
2021/08/17 02:25:06;;;;;;;12.85;5.47;;;;;;;9.63;95.25;99781.53;5063714;28;20024;-69
2021/08/17 02:27:36;;;;;;;15.48;5.20;;;;;;;9.57;95.00;99807.78;5062888;28;20017;-69
2021/08/17 02:30:03;;;;;;;12.40;4.90;;;;;;;9.54;94.40;99813.03;5063975;28;20084;-69
2021/08/17 02:32:29;;;;;;;10.32;4.72;;;;;;;9.55;94.99;99814.81;5060070;28;20029;-69
2021/08/17 02:34:54;;;;;;;9.88;4.88;;;;;;;9.64;94.75;99830.59;5051761;28;20020;-69
2021/08/17 02:37:20;;;;;;;8.73;3.33;;;;;;;9.51;93.56;99810.41;5063856;28;20028;-69
2021/08/17 02:39:45;;;;;;;12.13;4.13;;;;;;;9.44;94.34;99811.25;5051041;28;20029;-69
2021/08/17 02:42:11;;;;;;;20.77;5.22;;;;;;;9.44;94.46;99827.03;5053807;28;20078;-69
2021/08/17 02:44:36;;;;;;;8.68;4.75;;;;;;;9.53;94.18;99821.81;5044500;28;20089;-69
2021/08/17 02:47:02;;;;;;;11.48;5.07;;;;;;;9.43;93.70;99867.31;5062793;28;20031;-69
2021/08/17 02:49:28;;;;;;;12.60;4.10;;;;;;;9.26;94.52;99850.56;5062716;28;20088;-69
2021/08/17 02:51:54;;;;;;;12.65;4.95;;;;;;;9.39;95.00;99823.50;5064397;28;20025;-69
2021/08/17 02:54:20;;;;;;;11.48;5.63;;;;;;;9.45;94.89;99823.50;5064539;28;20102;-69
2021/08/17 02:56:45;;;;;;;15.32;6.53;;;;;;;9.26;94.71;99837.44;5063137;28;20104;-69
2021/08/17 02:59:10;;;;;;;15.95;6.32;;;;;;;9.24;94.94;99845.31;5059502;28;20240;-69
2021/08/17 03:01:36;;;;;;;14.27;6.65;;;;;;;9.26;95.05;99834.81;5042971;28;20045;-69
2021/08/17 03:04:01;;;;;;;17.27;7.88;;;;;;;9.30;95.67;99866.38;5044165;28;20032;-69
2021/08/17 03:06:26;;;;;;;17.23;7.00;;;;;;;9.40;95.25;99883.06;5058302;28;20320;-69
2021/08/17 03:08:52;;;;;;;14.10;6.18;;;;;;;9.34;95.31;99851.50;5063037;28;20025;-69
2021/08/17 03:11:17;;;;;;;13.18;4.38;;;;;;;9.39;95.66;99849.75;5061079;28;20100;-69
2021/08/17 03:13:43;;;;;;;14.73;6.97;;;;;;;9.34;94.94;99851.50;5044121;28;20325;-69
2021/08/17 03:16:08;;;;;;;15.05;6.15;;;;;;;9.46;94.77;99867.34;5044070;28;20380;-69
2021/08/17 03:18:34;;;;;;;15.55;7.13;;;;;;;9.40;94.50;99857.66;5055379;28;20029;-69
2021/08/17 03:20:59;;;;;;;14.70;7.03;;;;;;;9.40;94.51;99856.81;5062071;28;20025;-69
2021/08/17 03:23:28;;;;;;;13.32;6.20;;;;;;;9.32;93.81;99863.75;5062150;28;20313;-69
2021/08/17 03:25:55;;;;;;;17.63;7.45;;;;;;;9.21;94.41;99844.44;5043903;28;20029;-69
2021/08/17 03:28:20;;;;;;;23.02;8.30;;;;;;;9.30;94.98;99870.78;5043952;28;20053;-69
2021/08/17 03:30:46;;;;;;;22.05;8.50;;;;;;;9.30;95.18;99861.13;5053222;28;20212;-69
2021/08/17 03:33:11;;;;;;;22.67;9.80;;;;;;;9.28;95.31;99862.88;5062181;28;20068;-69
2021/08/17 03:35:36;;;;;;;25.88;10.57;;;;;;;9.29;95.67;99885.63;5063549;28;20025;-69
2021/08/17 03:38:02;;;;;;;26.20;9.23;;;;;;;9.30;95.66;99887.38;5063084;28;20025;-69
2021/08/17 03:40:28;;;;;;;22.80;9.93;;;;;;;9.36;95.34;99871.66;5063213;28;20076;-69
2021/08/17 03:42:53;;;;;;;23.65;9.07;;;;;;;9.31;95.06;99865.53;5043863;28;20040;-69
2021/08/17 03:45:20;;;;;;;23.88;10.00;;;;;;;9.33;95.40;99871.63;5054568;28;20017;-69
2021/08/17 03:47:47;;;;;;;22.15;9.82;;;;;;;9.51;95.91;99891.88;5044384;28;20021;-69
2021/08/17 03:50:15;;;;;;;20.20;8.88;;;;;;;9.50;95.51;99890.13;5043750;28;20022;-69
2021/08/17 03:52:41;;;;;;;17.75;8.32;;;;;;;9.56;94.70;99890.16;5051853;28;20020;-69
2021/08/17 03:55:08;;;;;;;21.55;10.05;;;;;;;9.71;95.47;99879.72;5053894;28;20284;-69
2021/08/17 03:57:34;;;;;;;21.80;9.43;;;;;;;9.84;95.21;99907.81;5063065;28;20044;-69
2021/08/17 03:59:59;;;;;;;28.77;10.52;;;;;;;9.90;95.19;99902.59;5045634;28;20312;-69
2021/08/17 04:02:24;;;;;;;27.40;11.00;;;;;;;10.03;94.92;99910.50;5043402;28;20057;-69
2021/08/17 04:04:50;;;;;;;31.50;12.02;;;;;;;10.11;95.05;99918.44;5050394;28;20024;-69
2021/08/17 04:07:16;;;;;;;36.30;13.93;;;;;;;10.18;95.05;99914.94;5062714;28;20025;-69
2021/08/17 04:09:41;;;;;;;33.20;12.68;;;;;;;10.27;95.27;99925.50;5062959;28;20021;-69
2021/08/17 04:12:07;;;;;;;61.53;13.13;;;;;;;10.30;95.29;99920.25;5052889;28;20017;-69
2021/08/17 04:14:32;;;;;;;91.32;14.43;;;;;;;10.32;95.26;99907.97;5062890;28;20020;-69
2021/08/17 04:16:58;;;;;;;31.33;13.30;;;;;;;10.50;95.43;99919.41;5060671;28;20032;-69
2021/08/17 04:19:24;;;;;;;31.55;12.57;;;;;;;10.58;95.04;99916.78;5048438;28;20021;-69
2021/08/17 04:21:50;;;;;;;70.20;17.30;;;;;;;10.74;95.81;99929.09;5063332;28;20017;-69
2021/08/17 04:24:15;;;;;;;39.72;14.15;;;;;;;10.79;95.82;99932.63;5063307;28;20025;-69
2021/08/17 04:26:41;;;;;;;34.53;13.93;;;;;;;10.83;95.40;99922.06;5063330;28;20032;-69
2021/08/17 04:29:06;;;;;;;38.53;14.52;;;;;;;10.92;95.67;99963.34;5063292;28;20063;-69
2021/08/17 04:31:31;;;;;;;71.45;17.33;;;;;;;10.83;95.41;99931.72;5063283;28;20021;-69
2021/08/17 04:33:57;;;;;;;42.55;15.95;;;;;;;10.94;95.68;99948.41;5063268;28;20024;-69
2021/08/17 04:36:22;;;;;;;46.28;18.50;;;;;;;11.14;95.97;99946.66;5063241;28;20017;-69
2021/08/17 04:38:48;;;;;;;47.00;17.77;;;;;;;11.21;95.87;99932.59;5063217;28;20308;-69
2021/08/17 04:41:13;;;;;;;43.28;18.30;;;;;;;11.30;95.62;99958.06;5062322;28;20057;-69
2021/08/17 04:43:39;;;;;;;39.13;17.20;;;;;;;11.40;95.58;99955.41;5063163;28;20032;-69
2021/08/17 04:46:04;;;;;;;47.13;18.63;;;;;;;11.39;95.67;99976.50;5063072;28;20028;-69
2021/08/17 04:48:30;;;;;;;53.20;20.50;;;;;;;11.54;95.80;99979.97;5064793;28;20031;-69
2021/08/17 04:50:55;;;;;;;51.10;19.48;;;;;;;11.60;95.55;99977.31;5066674;28;20027;-69
2021/08/17 04:53:20;;;;;;;52.28;20.10;;;;;;;11.67;95.62;99976.47;5066720;28;20025;-69
2021/08/17 04:55:46;;;;;;;50.30;21.23;;;;;;;11.68;94.97;100009.84;5066638;28;20029;-69
2021/08/17 04:58:11;;;;;;;55.00;19.80;;;;;;;11.77;95.23;99999.28;5066574;28;20024;-69
2021/08/17 05:00:44;;;;;;;57.33;21.23;;;;;;;11.87;95.38;100031.81;5066541;28;20219;-69
2021/08/17 05:03:09;;;;;;;;;;;;;;;11.97;94.95;100015.06;5066752;28;20069;-69
2021/08/17 05:05:34;;;;;;;51.20;20.35;;;;;;;12.08;94.85;100022.06;5066356;28;19995;-69
2021/08/17 05:08:05;;;;;;;58.45;22.60;;;;;;;11.98;94.40;100045.84;5066377;28;20092;-69
2021/08/17 05:10:31;;;;;;;65.30;25.02;;;;;;;11.94;94.61;100050.28;5066398;28;20025;-69
2021/08/17 05:12:56;;;;;;;59.88;24.55;;;;;;;11.97;94.52;100074.03;5066295;28;20084;-69
2021/08/17 05:15:22;;;;;;;55.63;23.42;;;;;;;12.05;94.75;100085.41;5066248;28;20321;-69
2021/08/17 05:17:47;;;;;;;57.28;24.02;;;;;;;12.05;94.57;100148.75;5066206;28;20220;-69
2021/08/17 05:20:13;;;;;;;56.53;23.02;;;;;;;12.14;94.50;100095.97;5066230;28;20051;-69
2021/08/17 05:22:38;;;;;;;54.58;23.67;;;;;;;12.18;94.49;100108.25;5066187;28;20025;-69
2021/08/17 05:25:04;;;;;;;53.45;24.13;;;;;;;12.25;94.65;100099.44;5066027;28;20028;-69
2021/08/17 05:27:29;;;;;;;47.00;21.00;;;;;;;12.29;94.28;100126.72;5065965;28;20063;-69
2021/08/17 05:29:56;;;;;;;51.08;22.08;;;;;;;12.14;94.26;100143.47;5064823;28;20216;-69
2021/08/17 05:32:22;;;;;;;49.17;21.27;;;;;;;12.18;94.25;100155.78;5065969;28;20021;-69
2021/08/17 05:34:48;;;;;;;48.08;21.65;;;;;;;12.29;93.95;100153.13;5065943;28;20340;-69
2021/08/17 05:37:16;;;;;;;55.33;22.23;;;;;;;12.16;94.03;100189.25;5064678;28;20047;-69
2021/08/17 05:39:42;;;;;;;50.05;20.75;;;;;;;12.23;94.39;100119.69;5064645;28;20028;-69
2021/08/17 05:42:11;;;;;;;51.47;21.55;;;;;;;12.23;94.74;100080.09;5065765;28;20024;-69
2021/08/17 05:44:38;;;;;;;45.30;21.25;;;;;;;12.29;94.45;100058.97;5065643;28;20032;-69
2021/08/17 05:47:04;;;;;;;50.75;22.48;;;;;;;12.30;94.68;100050.16;5065644;28;20078;-69
2021/08/17 05:49:29;;;;;;;46.25;21.25;;;;;;;12.27;94.50;100055.44;5065604;28;20024;-69
2021/08/17 05:51:55;;;;;;;49.13;21.60;;;;;;;12.31;94.57;100041.34;5065575;28;20027;-69
2021/08/17 05:54:20;;;;;;;52.70;22.13;;;;;;;12.29;93.98;100045.75;5065573;28;20212;-69
2021/08/17 05:56:45;;;;;;;41.45;20.02;;;;;;;12.32;94.18;100058.97;5065513;28;20091;-69
2021/08/17 05:59:11;;;;;;;52.58;22.23;;;;;;;12.33;94.69;100060.69;5065050;28;20253;-69
2021/08/17 06:01:36;;;;;;;55.03;22.13;;;;;;;12.34;94.52;100041.31;5064971;28;20045;-69
2021/08/17 06:04:02;;;;;;;50.08;21.73;;;;;;;12.29;94.57;100047.50;5065292;28;20032;-69
2021/08/17 06:06:28;;;;;;;49.35;21.77;;;;;;;12.54;94.17;100039.50;5065200;28;20029;-69
2021/08/17 06:08:53;;;;;;;57.85;24.25;;;;;;;12.67;94.46;100072.00;5065243;28;20093;-69
2021/08/17 06:11:18;;;;;;;50.22;22.67;;;;;;;12.75;94.46;100179.41;5065175;28;20259;-69
2021/08/17 06:13:44;;;;;;;56.25;23.08;;;;;;;12.84;94.59;100256.00;5065109;28;20044;-69
2021/08/17 06:16:10;;;;;;;60.22;23.77;;;;;;;12.93;94.13;100335.28;5065093;28;20023;-69
2021/08/17 06:18:35;;;;;;;61.40;24.25;;;;;;;12.99;94.10;100631.38;5065052;28;20017;-69
2021/08/17 06:21:00;;;;;;;56.30;24.58;;;;;;;13.23;93.51;99915.69;5064123;28;20044;-69
2021/08/17 06:23:26;;;;;;;57.33;25.02;;;;;;;13.25;94.19;99887.47;5064952;28;20066;-69
2021/08/17 06:25:51;;;;;;;63.70;25.30;;;;;;;13.20;94.69;99846.97;5064831;28;20066;-69
2021/08/17 06:28:17;;;;;;;62.70;26.45;;;;;;;13.20;94.59;99873.41;5063711;28;20024;-69
2021/08/17 06:30:42;;;;;;;61.90;27.10;;;;;;;13.33;94.11;99875.03;5064832;28;20277;-69
2021/08/17 06:33:07;;;;;;;57.42;24.15;;;;;;;13.39;93.54;99851.16;5063597;28;20024;-69
2021/08/17 06:35:33;;;;;;;56.72;25.90;;;;;;;13.47;92.92;99852.81;5064722;28;20046;-69
2021/08/17 06:37:59;;;;;;;56.40;24.50;;;;;;;13.61;92.98;99835.03;5064679;28;20373;-69
2021/08/17 06:40:25;;;;;;;62.20;26.63;;;;;;;13.62;93.79;99904.69;5063469;28;20324;-69
2021/08/17 06:42:51;;;;;;;62.72;26.92;;;;;;;13.64;92.91;99865.88;5064590;28;20044;-69
2021/08/17 06:45:17;;;;;;;62.88;26.73;;;;;;;13.69;92.43;99872.84;5064489;28;20339;-69
2021/08/17 06:47:50;;;;;;;61.53;27.05;;;;;;;13.69;93.87;99895.78;5063342;28;20028;-69
2021/08/17 06:50:17;;;;;;;56.75;24.67;;;;;;;13.90;93.29;99920.22;5064445;28;20024;-69
2021/08/17 06:52:43;;;;;;;59.35;28.77;;;;;;;13.97;93.72;100151.34;5064372;28;20021;-69
2021/08/17 06:55:10;;;;;;;59.15;25.88;;;;;;;13.99;93.83;99974.84;5064363;28;20017;-69
2021/08/17 06:57:35;;;;;;;65.70;27.10;;;;;;;14.16;94.21;99901.34;5064332;28;20029;-69
2021/08/17 07:00:01;;;;;;;64.55;28.65;;;;;;;14.36;93.66;100553.66;5064283;28;20017;-69
2021/08/17 07:02:26;;;;;;;68.45;26.42;;;;;;;14.53;92.80;100106.63;5064031;28;20045;-69
2021/08/17 07:04:51;;;;;;;51.90;23.98;;;;;;;14.66;90.02;100458.09;5062961;28;20020;-69
2021/08/17 07:07:17;;;;;;;54.28;24.90;;;;;;;14.85;90.15;99616.69;5064202;28;20021;-69
2021/08/17 07:09:42;;;;;;;44.97;22.00;;;;;;;14.93;89.59;99472.47;5064155;28;20094;-69
2021/08/17 07:12:08;;;;;;;52.72;23.45;;;;;;;14.92;89.39;99443.34;5063182;28;20043;-69
2021/08/17 07:14:34;;;;;;;47.83;22.55;;;;;;;15.02;89.18;99398.03;5064060;28;20090;-69
2021/08/17 07:16:59;;;;;;;49.08;23.38;;;;;;;15.02;88.25;99505.84;5062937;28;20024;-69
2021/08/17 07:19:25;;;;;;;51.45;21.13;;;;;;;15.14;87.41;99424.25;5064027;28;20071;-69
2021/08/17 07:21:51;;;;;;;47.42;22.77;;;;;;;15.36;88.40;99716.38;5064007;28;20093;-69
2021/08/17 07:24:16;;;;;;;49.08;22.80;;;;;;;15.43;87.06;99680.88;5063907;28;20024;-69
2021/08/17 07:26:41;;;;;;;45.45;20.75;;;;;;;15.45;86.31;99713.56;5063928;28;20128;-69
2021/08/17 07:29:07;;;;;;;51.30;23.15;;;;;;;15.28;86.20;100041.94;5063937;28;20028;-69
2021/08/17 07:31:36;;;;;;;50.10;21.60;;;;;;;15.27;86.64;99552.09;5063867;28;20325;-69
2021/08/17 07:34:02;;;;;;;47.78;21.70;;;;;;;15.16;86.91;99745.09;5062692;28;20021;-69
2021/08/17 07:36:30;;;;;;;47.92;21.92;;;;;;;15.37;85.73;99670.38;5063845;28;20024;-69
2021/08/17 07:38:55;;;;;;;42.55;21.63;;;;;;;15.51;85.31;99624.97;5062648;28;20224;-69
2021/08/17 07:41:20;;;;;;;45.97;21.60;;;;;;;15.94;84.08;99755.78;5063801;28;20055;-69
2021/08/17 07:43:46;;;;;;;48.05;23.60;;;;;;;16.40;83.18;99746.69;5064107;28;20056;-69
2021/08/17 07:46:12;;;;;;;47.58;23.15;;;;;;;17.37;79.48;99531.16;5063656;28;20070;-70
2021/08/17 07:48:37;;;;;;;41.00;20.08;;;;;;;17.27;80.77;100053.03;5063728;28;20028;-70
2021/08/17 07:51:03;;;;;;;45.67;20.98;;;;;;;17.35;79.12;99552.50;5063692;28;20025;-70
2021/08/17 07:53:28;;;;;;;40.08;19.88;;;;;;;18.70;74.93;99706.94;5063703;28;20294;-70
2021/08/17 07:55:54;;;;;;;39.53;19.50;;;;;;;19.49;75.13;99352.44;5063664;28;20025;-70
2021/08/17 07:58:19;;;;;;;34.88;18.75;;;;;;;18.81;73.93;99592.72;5063600;28;20020;-70
2021/08/17 08:00:45;;;;;;;43.97;20.30;;;;;;;17.65;77.31;99588.81;5063610;28;20056;-70
2021/08/17 08:03:10;;;;;;;39.45;19.77;;;;;;;17.76;78.36;99517.44;5063371;28;20064;-70
2021/08/17 08:05:36;;;;;;;36.75;18.83;;;;;;;17.42;76.91;99430.72;5063494;28;20024;-70
2021/08/17 08:08:02;;;;;;;33.92;17.83;;;;;;;17.59;77.50;99476.34;5062388;28;20074;-70
2021/08/17 08:10:28;;;;;;;37.35;18.73;;;;;;;17.36;77.85;99484.16;5063478;28;20251;-70
2021/08/17 08:12:53;;;;;;;37.22;18.17;;;;;;;17.37;78.14;99435.34;5063552;28;20025;-70
2021/08/17 08:15:19;;;;;;;35.63;18.75;;;;;;;17.33;79.49;99407.97;5063484;28;20084;-70
2021/08/17 08:17:44;;;;;;;41.58;19.83;;;;;;;17.25;78.45;99524.44;5063462;28;20035;-70
2021/08/17 08:20:10;;;;;;;31.77;17.92;;;;;;;17.09;78.61;99518.72;5062256;28;20025;-70
2021/08/17 08:22:36;;;;;;;35.28;18.98;;;;;;;16.97;78.88;99606.91;5063746;28;20031;-70
2021/08/17 08:25:02;;;;;;;40.83;19.17;;;;;;;17.83;77.11;99406.22;5067154;28;20020;-70
2021/08/17 08:27:28;;;;;;;37.90;18.98;;;;;;;18.29;77.58;99419.59;5067226;28;20313;-70
2021/08/17 08:29:53;;;;;;;31.52;16.40;;;;;;;18.23;75.10;99518.44;5067182;28;20021;-70
2021/08/17 08:32:18;;;;;;;33.38;15.85;;;;;;;18.15;73.11;99457.41;5067067;28;20053;-70
2021/08/17 08:34:44;;;;;;;29.33;16.13;;;;;;;18.60;74.11;99502.81;5067033;28;20123;-70
2021/08/17 08:37:09;;;;;;;32.10;16.23;;;;;;;19.01;72.57;99564.34;5066973;28;20036;-70
2021/08/17 08:39:35;;;;;;;31.20;15.95;;;;;;;18.86;72.57;99532.06;5066960;28;20080;-70
2021/08/17 08:42:02;;;;;;;25.20;14.82;;;;;;;19.44;70.04;99673.06;5066927;28;20021;-70
2021/08/17 08:44:28;;;;;;;27.98;14.95;;;;;;;19.85;71.67;100837.50;5066857;28;20032;-70
2021/08/17 08:46:54;;;;;;;27.17;14.73;;;;;;;19.48;70.55;99639.97;5065680;28;20025;-70
2021/08/17 08:49:20;;;;;;;27.58;13.93;;;;;;;19.79;65.10;99258.44;5066787;28;20032;-70
2021/08/17 08:51:45;;;;;;;27.92;14.48;;;;;;;19.67;69.76;99531.44;5066724;28;20028;-70
2021/08/17 08:54:11;;;;;;;29.60;15.35;;;;;;;19.64;70.89;99432.75;5066649;28;20035;-70
2021/08/17 08:56:37;;;;;;;29.83;15.65;;;;;;;19.74;70.50;99455.44;5065443;28;20071;-70
2021/08/17 08:59:02;;;;;;;30.15;15.32;;;;;;;19.51;71.83;99371.91;5066580;28;20029;-70
2021/08/17 09:01:28;;;;;;;27.95;14.68;;;;;;;20.21;68.92;99402.59;5066369;28;20049;-70
2021/08/17 09:03:56;;;;;;;26.58;12.25;;;;;;;21.03;61.55;99385.25;5066495;28;20021;-70
2021/08/17 09:06:25;;;;;;;26.48;12.98;;;;;;;20.55;64.59;99398.28;5066396;28;20217;-70
2021/08/17 09:09:11;;;;;;;23.38;12.93;;;;;;;20.49;66.97;99478.81;5066439;28;20066;-70
2021/08/17 09:11:40;;;;;;;19.70;11.65;;;;;;;20.50;64.84;99368.22;5066392;28;20031;-70
2021/08/17 09:14:20;;;;;;;21.30;11.95;;;;;;;20.35;64.38;99673.78;5066330;28;20220;-70
2021/08/17 09:16:47;;;;;;;25.38;12.43;;;;;;;20.88;62.04;99481.47;5066279;28;20024;-70
2021/08/17 09:19:32;;;;;;;20.75;10.82;;;;;;;20.21;63.24;99491.69;5066505;28;20243;-70
2021/08/17 09:22:02;;;;;;;20.80;10.80;;;;;;;21.06;61.38;99476.13;5066230;28;20032;-70
2021/08/17 09:24:34;;;;;;;23.45;10.90;;;;;;;21.33;60.62;99447.97;5066606;28;20043;-70
2021/08/17 09:27:02;;;;;;;22.60;12.30;;;;;;;20.44;59.85;102124.16;5064923;28;20021;-70
2021/08/17 09:29:32;;;;;;;20.83;10.93;;;;;;;21.44;62.80;99427.81;5065988;28;20339;-70
2021/08/17 09:32:01;;;;;;;18.25;9.18;;;;;;;21.60;60.90;99418.06;5066027;28;20046;-70
2021/08/17 09:34:37;;;;;;;19.48;10.52;;;;;;;20.76;60.47;99410.63;5063723;28;20021;-70
2021/08/17 09:37:07;;;;;;;17.38;10.32;;;;;;;20.04;62.48;99528.97;5065910;28;20029;-70
2021/08/17 09:39:40;;;;;;;19.10;10.70;;;;;;;20.01;62.35;99545.13;5065863;28;20016;-70
2021/08/17 09:42:07;;;;;;;19.83;10.88;;;;;;;19.66;65.27;99350.75;5065826;28;20063;-70
2021/08/17 09:44:32;;;;;;;18.98;9.85;;;;;;;19.58;66.48;99376.06;5065668;28;20033;-70
2021/08/17 09:46:58;;;;;;;19.55;10.38;;;;;;;19.86;62.57;99369.44;5064545;28;20254;-70
2021/08/17 09:49:26;;;;;;;18.05;10.30;;;;;;;19.74;62.82;99487.50;5065702;28;20021;-70
2021/08/17 09:51:54;;;;;;;19.13;9.27;;;;;;;19.54;60.96;99398.47;5064437;28;20092;-70
2021/08/17 09:54:22;;;;;;;19.95;9.30;;;;;;;19.95;62.83;99443.84;5064705;28;20062;-70
2021/08/17 09:56:59;;;;;;;16.05;9.35;;;;;;;20.93;62.03;99378.59;5065501;28;20021;-70
2021/08/17 09:59:27;;;;;;;14.80;8.57;;;;;;;20.69;58.49;99393.13;5065521;28;20025;-70
2021/08/17 10:01:52;;;;;;;15.70;9.57;;;;;;;20.64;61.20;99440.66;5065199;28;20041;-70
2021/08/17 10:04:19;;;;;;;16.80;8.63;;;;;;;20.34;61.28;99388.59;5064136;28;20024;-70
2021/08/17 10:06:45;;;;;;;20.08;10.05;;;;;;;20.05;63.72;99902.22;5065298;28;20021;-70
2021/08/17 10:09:15;;;;;;;19.60;9.50;;;;;;;20.12;62.33;99529.53;5064108;28;20017;-70
2021/08/17 10:11:42;;;;;;;18.58;9.32;;;;;;;20.23;62.10;99503.19;5065220;28;20024;-70
2021/08/17 10:14:11;;;;;;;16.17;9.05;;;;;;;20.20;59.01;99417.78;5065148;28;20224;-70
2021/08/17 10:16:36;;;;;;;15.32;8.60;;;;;;;20.04;60.78;99419.38;5065122;28;20088;-70
2021/08/17 10:19:03;;;;;;;14.80;8.18;;;;;;;19.70;59.91;99412.91;5065093;28;20343;-70
2021/08/17 10:21:29;;;;;;;15.27;8.20;;;;;;;20.51;60.55;99404.75;5065020;28;20212;-70
2021/08/17 10:23:55;;;;;;;14.32;7.60;;;;;;;20.42;57.46;99362.38;5063822;28;20096;-70
2021/08/17 10:26:33;;;;;;;15.43;7.93;;;;;;;21.41;54.59;99401.22;5064879;28;20051;-70
2021/08/17 10:29:00;;;;;;;14.48;8.20;;;;;;;21.92;54.46;99420.00;5064873;28;20043;-70
2021/08/17 10:31:33;;;;;;;16.65;8.52;;;;;;;21.85;53.73;99596.34;5063689;28;20017;-70
2021/08/17 10:34:11;;;;;;;14.02;8.27;;;;;;;22.09;54.38;99419.94;5064813;28;20025;-70
2021/08/17 10:36:47;;;;;;;18.20;8.38;;;;;;;22.39;54.05;99399.50;5063632;28;20017;-70
2021/08/17 10:39:18;;;;;;;15.10;7.75;;;;;;;23.07;49.69;99399.22;5063591;28;20025;-70
2021/08/17 10:41:46;;;;;;;17.25;8.40;;;;;;;23.32;53.18;99574.22;5063482;28;20091;-70
2021/08/17 10:44:21;;;;;;;15.25;7.65;;;;;;;23.73;49.99;99779.72;5064578;28;20025;-70
2021/08/17 10:46:53;;;;;;;16.02;7.80;;;;;;;23.68;47.34;99564.03;5064361;28;20033;-70
2021/08/17 10:49:36;;;;;;;15.18;7.50;;;;;;;23.33;45.83;99492.63;5064497;28;20084;-70
2021/08/17 10:52:07;;;;;;;13.88;7.82;;;;;;;22.48;48.75;99476.81;5064476;28;20021;-70
2021/08/17 10:54:34;;;;;;;17.70;8.10;;;;;;;22.68;51.10;99482.00;5064512;28;20079;-70
2021/08/17 10:57:18;;;;;;;17.23;8.07;;;;;;;22.35;50.55;99436.38;5063205;28;20374;-70
2021/08/17 10:59:46;;;;;;;12.18;7.38;;;;;;;23.07;49.89;99458.31;5064369;28;20028;-70
2021/08/17 11:02:13;;;;;;;14.07;8.50;;;;;;;22.93;49.87;99444.78;5064089;28;20094;-70
2021/08/17 11:04:48;;;;;;;14.98;7.18;;;;;;;23.36;52.73;99895.53;5064232;28;20021;-70
2021/08/17 11:07:34;;;;;;;15.68;8.57;;;;;;;23.23;51.60;99593.53;5064246;28;20020;-70
2021/08/17 11:10:03;;;;;;;16.13;8.00;;;;;;;24.06;49.33;99490.09;5062764;28;20228;-70
2021/08/17 11:12:31;;;;;;;14.48;8.25;;;;;;;22.83;50.99;99497.25;5062980;28;20016;-70
2021/08/17 11:14:57;;;;;;;13.88;8.10;;;;;;;22.82;51.04;99428.44;5064140;28;20044;-70
2021/08/17 11:17:22;;;;;;;10.20;7.10;;;;;;;22.80;51.52;99408.84;5062943;28;20017;-70
2021/08/17 11:19:50;;;;;;;12.05;7.20;;;;;;;22.98;48.55;99421.22;5064037;28;20017;-70